Time;durP1;ratioP1;P1;durP2;ratioP2;P2;SDS_P1;SDS_P2;PMS_P1;PMS_P2;Temp;Humidity;BMP_temperature;BMP_pressure;BME280_temperature;BME280_humidity;BME280_pressure;Samples;Min_cycle;Max_cycle;Signal;HPM_P1;HPM_P2
2023/01/01 00:00:05;;;;;;;12.82;5.70;;;16.30;82.40;;;;;;5104594;28;20457;-61
2023/01/01 00:02:31;;;;;;;14.60;5.57;;;16.40;82.20;;;;;;5091508;28;20020;-61
2023/01/01 00:04:57;;;;;;;7.63;4.40;;;16.30;82.10;;;;;;5095188;28;20027;-60
2023/01/01 00:07:22;;;;;;;12.02;5.43;;;16.40;81.70;;;;;;5100745;28;20023;-61
2023/01/01 00:12:33;;;;;;;10.45;4.07;;;16.40;82.40;;;;;;5105730;28;20044;-61
2023/01/01 00:14:58;;;;;;;9.90;4.13;;;16.30;82.40;;;;;;5092000;28;20126;-61
2023/01/01 00:17:24;;;;;;;11.85;4.63;;;16.40;82.30;;;;;;5104575;28;20114;-61
2023/01/01 00:19:49;;;;;;;10.63;3.75;;;16.30;82.70;;;;;;5093430;28;20024;-61
2023/01/01 00:22:15;;;;;;;11.68;3.88;;;16.30;82.60;;;;;;5097505;28;20024;-61
2023/01/01 00:24:40;;;;;;;13.63;4.13;;;16.30;82.30;;;;;;5093802;28;20024;-61
2023/01/01 00:27:06;;;;;;;9.80;3.60;;;16.30;81.60;;;;;;5108857;28;20445;-61
2023/01/01 00:29:31;;;;;;;9.73;3.17;;;16.30;81.60;;;;;;5110526;28;20483;-61
2023/01/01 00:31:57;;;;;;;10.23;3.45;;;16.30;82.20;;;;;;5098220;28;20036;-61
2023/01/01 00:34:23;;;;;;;11.80;2.90;;;16.40;81.30;;;;;;5090720;28;20035;-61
2023/01/01 00:36:48;;;;;;;10.75;2.38;;;16.40;81.90;;;;;;5090405;28;20036;-61
2023/01/01 00:39:14;;;;;;;9.52;2.72;;;16.30;82.30;;;;;;5103577;28;20023;-61
2023/01/01 00:41:39;;;;;;;7.82;1.98;;;16.20;83.60;;;;;;5106237;28;20305;-61
2023/01/01 00:44:05;;;;;;;11.35;2.75;;;16.10;84.30;;;;;;5090886;28;20032;-61
2023/01/01 00:46:30;;;;;;;10.35;2.70;;;16.00;84.40;;;;;;5100082;28;20032;-61
2023/01/01 00:48:56;;;;;;;6.53;2.47;;;16.00;84.90;;;;;;5090381;28;20035;-61
2023/01/01 00:51:22;;;;;;;10.70;2.30;;;16.00;84.40;;;;;;5093868;28;20424;-60
2023/01/01 00:53:47;;;;;;;10.38;2.67;;;16.00;84.10;;;;;;5094319;28;20028;-61
2023/01/01 00:56:13;;;;;;;10.48;3.15;;;16.00;83.80;;;;;;5094188;28;20077;-61
2023/01/01 00:58:38;;;;;;;4.72;2.00;;;16.00;83.80;;;;;;5112155;27;20032;-61
2023/01/01 01:01:04;;;;;;;10.07;3.45;;;16.00;83.10;;;;;;5092723;28;20460;-61
2023/01/01 01:03:29;;;;;;;5.75;2.13;;;16.00;82.40;;;;;;5105569;28;20032;-61
2023/01/01 01:05:58;;;;;;;6.95;2.08;;;16.10;82.00;;;;;;5104666;28;20134;-61
2023/01/01 01:08:24;;;;;;;7.63;2.22;;;16.10;81.90;;;;;;5103585;28;20030;-60
2023/01/01 01:10:50;;;;;;;7.22;2.10;;;16.00;81.10;;;;;;5102410;28;20024;-60
2023/01/01 01:13:16;;;;;;;7.72;1.90;;;16.10;82.00;;;;;;5103719;28;20096;-61
2023/01/01 01:15:41;;;;;;;6.72;2.20;;;16.00;81.60;;;;;;5105601;28;20078;-61
2023/01/01 01:18:07;;;;;;;3.78;1.75;;;16.10;81.30;;;;;;5081948;28;20020;-60
2023/01/01 01:20:32;;;;;;;4.10;1.45;;;16.10;81.80;;;;;;5103569;28;20028;-61
2023/01/01 01:22:58;;;;;;;9.32;2.42;;;16.00;82.90;;;;;;5108334;28;20046;-60
2023/01/01 01:25:23;;;;;;;11.45;1.50;;;16.00;82.50;;;;;;5109046;28;20579;-61
2023/01/01 01:27:49;;;;;;;6.57;1.92;;;16.00;82.50;;;;;;5107741;28;20049;-61
2023/01/01 01:30:14;;;;;;;6.57;1.48;;;16.00;82.40;;;;;;5107139;28;20024;-61
2023/01/01 01:32:40;;;;;;;6.45;1.50;;;16.00;82.20;;;;;;5085187;28;20494;-60
2023/01/01 01:35:06;;;;;;;6.93;1.40;;;15.90;82.10;;;;;;5102342;28;20031;-60
2023/01/01 01:37:31;;;;;;;9.88;1.67;;;15.90;82.40;;;;;;5106645;28;20476;-60
2023/01/01 01:39:57;;;;;;;6.78;1.55;;;15.90;82.50;;;;;;5097417;28;20476;-61
2023/01/01 01:42:22;;;;;;;9.10;1.75;;;15.90;82.30;;;;;;5105520;28;20028;-61
2023/01/01 01:44:56;;;;;;;5.90;1.20;;;15.90;82.30;;;;;;5103707;28;20023;-60
2023/01/01 01:47:40;;;;;;;7.00;2.20;;;15.90;82.90;;;;;;5107169;28;20059;-61
2023/01/01 01:50:15;;;;;;;6.80;1.95;;;15.80;82.50;;;;;;5104678;28;20130;-61
2023/01/01 01:53:01;;;;;;;6.07;1.83;;;15.90;82.20;;;;;;5102905;28;20482;-61
2023/01/01 01:55:29;;;;;;;4.22;1.27;;;15.90;82.00;;;;;;5102181;28;20484;-60
2023/01/01 01:57:55;;;;;;;7.00;2.05;;;16.00;81.20;;;;;;5105040;28;20055;-61
2023/01/01 02:00:21;;;;;;;6.80;1.30;;;15.90;81.00;;;;;;5100037;28;20055;-60
2023/01/01 02:02:58;;;;;;;4.47;1.45;;;15.90;81.50;;;;;;5100252;27;20103;-60
2023/01/01 02:05:24;;;;;;;7.10;3.17;;;15.90;81.50;;;;;;5086342;28;20041;-60
2023/01/01 02:07:51;;;;;;;3.35;1.10;;;15.90;81.20;;;;;;5097131;28;20072;-60
2023/01/01 02:10:17;;;;;;;5.82;1.42;;;15.90;81.50;;;;;;5104816;28;20024;-60
2023/01/01 02:12:43;;;;;;;6.22;1.50;;;15.90;81.80;;;;;;5105153;28;20454;-61
2023/01/01 02:15:09;;;;;;;7.35;1.65;;;15.80;81.60;;;;;;5104162;28;20039;-60
2023/01/01 02:17:57;;;;;;;7.60;2.50;;;15.80;82.00;;;;;;5102179;28;20031;-61
2023/01/01 02:20:30;;;;;;;6.75;1.70;;;15.90;81.60;;;;;;5071170;28;20031;-60
2023/01/01 02:23:09;;;;;;;7.30;1.45;;;15.80;81.50;;;;;;5102051;28;20500;-60
2023/01/01 02:25:51;;;;;;;;;;;15.80;81.30;;;;;;5105816;28;20042;-61
2023/01/01 02:28:41;;;;;;;4.75;1.23;;;15.80;81.20;;;;;;5104549;28;19907;-61
2023/01/01 02:31:09;;;;;;;6.60;1.70;;;15.80;82.30;;;;;;5105139;28;20095;-61
2023/01/01 02:33:35;;;;;;;6.93;1.88;;;15.70;81.40;;;;;;5101335;28;20059;-61
2023/01/01 02:36:03;;;;;;;7.15;2.00;;;15.80;80.60;;;;;;5103802;28;20028;-61
2023/01/01 02:38:41;;;;;;;7.45;1.38;;;15.80;80.20;;;;;;5096352;28;20024;-60
2023/01/01 02:41:11;;;;;;;5.45;1.60;;;15.80;80.00;;;;;;5105071;28;20048;-60
2023/01/01 02:43:38;;;;;;;5.88;1.50;;;15.80;80.90;;;;;;5072923;28;20024;-60
2023/01/01 02:46:08;;;;;;;4.90;1.10;;;15.80;79.90;;;;;;5104516;28;20081;-61
2023/01/01 02:48:40;;;;;;;4.70;1.15;;;15.80;79.60;;;;;;5104998;28;20028;-60
2023/01/01 02:51:26;;;;;;;5.22;1.20;;;15.80;79.40;;;;;;5072738;28;20090;-61
2023/01/01 02:54:16;;;;;;;5.80;1.33;;;15.90;79.00;;;;;;5078952;28;20032;-60
2023/01/01 02:56:53;;;;;;;6.53;1.13;;;15.80;79.10;;;;;;5103857;28;20027;-61
2023/01/01 03:02:42;;;;;;;5.07;1.23;;;15.80;78.70;;;;;;5098157;28;20511;-61
2023/01/01 03:05:34;;;;;;;5.22;1.50;;;15.80;78.80;;;;;;5100026;28;20124;-61
2023/01/01 03:08:08;;;;;;;8.05;1.85;;;15.80;78.80;;;;;;5102551;28;20044;-60
2023/01/01 03:10:41;;;;;;;9.13;1.65;;;15.80;78.90;;;;;;5100108;28;20024;-61
2023/01/01 03:13:19;;;;;;;4.05;1.27;;;15.70;78.70;;;;;;5106506;28;20022;-61
2023/01/01 03:15:48;;;;;;;6.63;1.52;;;15.70;78.50;;;;;;5108486;28;20399;-61
2023/01/01 03:18:22;;;;;;;6.95;1.25;;;15.60;79.10;;;;;;5105606;28;20040;-60
2023/01/01 03:20:53;;;;;;;8.27;1.73;;;15.70;78.50;;;;;;5105944;28;20765;-60
2023/01/01 03:23:30;;;;;;;3.95;1.27;;;15.60;78.50;;;;;;5121872;27;20027;-61
2023/01/01 03:26:01;;;;;;;6.68;1.40;;;15.60;78.80;;;;;;5094202;28;20056;-60
2023/01/01 03:28:35;;;;;;;4.22;1.10;;;15.60;79.50;;;;;;5078732;28;20077;-61
2023/01/01 03:31:02;;;;;;;3.65;0.95;;;15.50;79.10;;;;;;5091949;28;20047;-60
2023/01/01 03:33:42;;;;;;;6.05;2.30;;;15.50;79.60;;;;;;5097158;28;20369;-60
2023/01/01 03:36:26;;;;;;;4.13;1.33;;;15.50;79.50;;;;;;5073523;28;20032;-61
2023/01/01 03:39:04;;;;;;;6.28;1.25;;;15.50;79.30;;;;;;5092380;28;20066;-60
2023/01/01 03:41:47;;;;;;;6.28;1.92;;;15.50;79.30;;;;;;5094264;28;20027;-60
2023/01/01 03:44:40;;;;;;;6.53;1.25;;;15.50;79.50;;;;;;5094488;28;20060;-60
2023/01/01 03:47:06;;;;;;;3.53;1.20;;;15.50;79.80;;;;;;5093719;28;20012;-61
2023/01/01 03:49:32;;;;;;;5.65;1.20;;;15.40;80.20;;;;;;5097064;28;20118;-60
2023/01/01 03:52:03;;;;;;;3.10;1.05;;;15.40;80.30;;;;;;5091316;28;20028;-60
2023/01/01 03:54:35;;;;;;;4.40;1.08;;;15.40;80.80;;;;;;5091351;28;20031;-60
2023/01/01 03:57:28;;;;;;;4.13;1.05;;;15.40;81.10;;;;;;5091814;28;20027;-61
2023/01/01 04:00:01;;;;;;;3.92;0.93;;;15.40;81.00;;;;;;5090443;28;20040;-61
2023/01/01 04:02:33;;;;;;;4.03;0.90;;;15.30;81.20;;;;;;5093526;28;20488;-61
2023/01/01 04:05:02;;;;;;;2.67;0.90;;;15.40;81.10;;;;;;5091820;28;20032;-60
2023/01/01 04:07:30;;;;;;;5.57;1.25;;;15.30;81.60;;;;;;5093097;27;20059;-61
2023/01/01 04:09:58;;;;;;;3.58;1.27;;;15.30;81.30;;;;;;5092435;28;20023;-60
2023/01/01 04:12:24;;;;;;;5.78;1.23;;;15.40;81.70;;;;;;5090654;28;20036;-60
2023/01/01 04:14:49;;;;;;;6.90;1.58;;;15.30;81.70;;;;;;5090857;28;20012;-60
2023/01/01 04:17:15;;;;;;;7.15;1.35;;;15.30;81.60;;;;;;5091159;28;20020;-60
2023/01/01 04:19:40;;;;;;;5.40;1.08;;;15.30;81.70;;;;;;5093454;28;20476;-60
2023/01/01 04:22:07;;;;;;;4.93;1.00;;;15.30;82.30;;;;;;5099070;28;20077;-60
2023/01/01 04:24:32;;;;;;;6.75;1.38;;;15.30;82.70;;;;;;5092060;28;20740;-60
2023/01/01 04:26:58;;;;;;;5.18;1.42;;;15.30;83.40;;;;;;5093141;28;20032;-60
2023/01/01 04:29:24;;;;;;;4.53;1.30;;;15.30;83.10;;;;;;5073754;28;20038;-60
2023/01/01 04:31:49;;;;;;;5.20;1.00;;;15.30;83.20;;;;;;5095555;28;20077;-60
2023/01/01 04:34:16;;;;;;;3.88;1.23;;;15.20;83.80;;;;;;5090448;28;20063;-60
2023/01/01 04:36:41;;;;;;;6.28;0.90;;;15.30;83.90;;;;;;5090587;28;20500;-61
2023/01/01 04:39:07;;;;;;;3.10;0.88;;;15.20;83.80;;;;;;5094833;28;20050;-60
2023/01/01 04:41:33;;;;;;;4.60;1.23;;;15.20;84.00;;;;;;5096403;28;20024;-60
2023/01/01 04:43:59;;;;;;;5.03;1.55;;;15.20;84.00;;;;;;5090075;28;20021;-60
2023/01/01 04:46:25;;;;;;;4.88;1.20;;;15.20;84.00;;;;;;5095789;28;20989;-60
2023/01/01 04:48:50;;;;;;;9.57;1.40;;;15.20;84.20;;;;;;5093353;28;20035;-60
2023/01/01 04:51:18;;;;;;;5.15;1.10;;;15.20;84.60;;;;;;5090196;28;20411;-60
2023/01/01 04:53:44;;;;;;;5.38;1.00;;;15.20;84.50;;;;;;5092877;28;20028;-60
2023/01/01 04:56:14;;;;;;;3.78;1.15;;;15.20;85.10;;;;;;5089981;28;20084;-60
2023/01/01 04:58:41;;;;;;;8.98;1.15;;;15.20;85.50;;;;;;5092922;28;20431;-60
2023/01/01 05:01:12;;;;;;;7.72;1.10;;;15.10;85.50;;;;;;5089771;28;20024;-61
2023/01/01 05:03:38;;;;;;;3.00;0.95;;;15.20;85.60;;;;;;5091694;28;20031;-60
2023/01/01 05:06:05;;;;;;;5.85;1.30;;;15.20;86.10;;;;;;5089924;28;20032;-60
2023/01/01 05:08:35;;;;;;;5.03;0.75;;;15.20;85.90;;;;;;5089275;28;20068;-61
2023/01/01 05:11:02;;;;;;;5.07;0.98;;;15.10;86.30;;;;;;5096355;28;20073;-61
2023/01/01 05:13:27;;;;;;;5.32;1.27;;;15.10;86.70;;;;;;5091844;28;20028;-60
2023/01/01 05:15:53;;;;;;;4.30;1.17;;;15.20;87.50;;;;;;5089140;28;20656;-60
2023/01/01 05:18:18;;;;;;;6.30;1.00;;;15.10;87.00;;;;;;5089687;28;20455;-60
2023/01/01 05:20:44;;;;;;;4.03;1.10;;;15.10;87.10;;;;;;5092487;28;20028;-60
2023/01/01 05:23:09;;;;;;;6.18;1.08;;;15.10;87.50;;;;;;5092308;28;20063;-60
2023/01/01 05:25:35;;;;;;;7.38;1.42;;;15.10;87.80;;;;;;5092049;28;20514;-60
2023/01/01 05:28:00;;;;;;;5.20;1.33;;;15.00;88.20;;;;;;5088858;28;20036;-60
2023/01/01 05:30:26;;;;;;;5.78;1.10;;;15.00;89.20;;;;;;5096832;28;20035;-60
2023/01/01 05:32:52;;;;;;;5.78;1.23;;;14.90;89.70;;;;;;5091262;28;20031;-60
2023/01/01 05:35:17;;;;;;;4.15;1.10;;;14.90;90.10;;;;;;5093801;28;20031;-60
2023/01/01 05:37:43;;;;;;;4.38;1.02;;;14.80;90.20;;;;;;5090823;28;20596;-60
2023/01/01 05:40:09;;;;;;;8.05;1.33;;;14.80;90.30;;;;;;5092056;28;20096;-60
2023/01/01 05:42:35;;;;;;;3.30;1.23;;;14.80;90.40;;;;;;5091201;28;20020;-60
2023/01/01 05:45:01;;;;;;;5.68;1.40;;;14.80;90.50;;;;;;5091268;28;20023;-60
2023/01/01 05:47:27;;;;;;;4.63;1.27;;;14.80;90.60;;;;;;5089355;27;20032;-60
2023/01/01 05:49:53;;;;;;;4.38;1.25;;;14.80;90.80;;;;;;5091022;28;20798;-60
2023/01/01 05:52:18;;;;;;;6.53;1.02;;;14.80;90.80;;;;;;5072879;28;20032;-60
2023/01/01 05:54:44;;;;;;;5.38;1.30;;;14.80;90.80;;;;;;5092019;28;20055;-61
2023/01/01 05:57:09;;;;;;;4.40;1.08;;;14.70;90.80;;;;;;5088924;28;20032;-60
2023/01/01 05:59:35;;;;;;;3.22;1.10;;;14.70;90.90;;;;;;5094205;28;20043;-60
2023/01/01 06:02:00;;;;;;;3.08;0.88;;;14.70;91.00;;;;;;5088191;28;20059;-60
2023/01/01 06:04:26;;;;;;;7.68;1.35;;;14.70;91.20;;;;;;5088365;28;20036;-60
2023/01/01 06:06:51;;;;;;;6.03;1.17;;;14.60;91.20;;;;;;5088203;28;20071;-60
2023/01/01 06:09:17;;;;;;;3.33;0.85;;;14.60;91.50;;;;;;5091474;28;20027;-60
2023/01/01 06:11:42;;;;;;;3.60;0.90;;;14.60;91.80;;;;;;5090619;28;20032;-60
2023/01/01 06:14:08;;;;;;;4.53;1.00;;;14.50;92.10;;;;;;5091266;28;20020;-60
2023/01/01 06:16:33;;;;;;;6.10;1.58;;;14.50;92.40;;;;;;5088877;28;20036;-60
2023/01/01 06:18:59;;;;;;;8.95;2.05;;;14.50;92.70;;;;;;5092411;28;20019;-60
2023/01/01 06:21:26;;;;;;;4.97;0.98;;;14.50;93.00;;;;;;5088277;28;20024;-60
2023/01/01 06:23:53;;;;;;;4.82;1.42;;;14.40;92.70;;;;;;5093263;28;20469;-60
2023/01/01 06:26:22;;;;;;;5.10;1.10;;;14.40;92.90;;;;;;5088058;28;20020;-60
2023/01/01 06:28:48;;;;;;;5.70;1.30;;;14.40;92.90;;;;;;5090644;28;20028;-60
2023/01/01 06:31:15;;;;;;;3.25;0.60;;;14.40;90.30;;;;;;5095021;28;20016;-60
2023/01/01 06:33:41;;;;;;;2.92;0.98;;;14.40;89.40;;;;;;5093586;28;20053;-60
2023/01/01 06:36:10;;;;;;;2.50;0.88;;;14.30;85.30;;;;;;5093494;28;20137;-60
2023/01/01 06:38:38;;;;;;;2.65;0.50;;;14.20;83.70;;;;;;5074738;28;20028;-60
2023/01/01 06:41:07;;;;;;;3.42;0.50;;;14.20;84.80;;;;;;5091578;28;20024;-60
2023/01/01 06:43:34;;;;;;;3.40;0.45;;;14.10;85.70;;;;;;5090379;28;20634;-60
2023/01/01 06:46:14;;;;;;;2.05;0.35;;;14.00;87.40;;;;;;5087843;28;20016;-60
2023/01/01 06:48:40;;;;;;;3.92;0.47;;;14.00;88.80;;;;;;5093318;28;20035;-60
2023/01/01 06:51:11;;;;;;;1.92;0.30;;;13.90;90.10;;;;;;5061226;28;20024;-60
2023/01/01 06:53:37;;;;;;;3.45;0.60;;;13.90;91.00;;;;;;5091898;28;20031;-60
2023/01/01 06:56:03;;;;;;;2.55;0.40;;;13.80;91.70;;;;;;5088960;28;20020;-60
2023/01/01 06:58:29;;;;;;;3.83;0.77;;;13.80;92.20;;;;;;5082989;28;20081;-60
2023/01/01 07:01:02;;;;;;;5.57;1.30;;;13.70;92.50;;;;;;5108946;28;20082;-60
2023/01/01 07:03:28;;;;;;;4.25;0.75;;;13.70;92.40;;;;;;5099535;28;20130;-60
2023/01/01 07:05:53;;;;;;;3.05;0.38;;;13.60;92.50;;;;;;5098647;28;20106;-60
2023/01/01 07:08:20;;;;;;;5.03;0.57;;;13.60;92.50;;;;;;5097655;28;20059;-60
2023/01/01 07:10:45;;;;;;;2.65;0.50;;;13.50;92.20;;;;;;5102812;28;20027;-60
2023/01/01 07:13:11;;;;;;;2.78;0.47;;;13.50;92.20;;;;;;5100466;28;20102;-60
2023/01/01 07:15:36;;;;;;;3.75;0.60;;;13.50;91.90;;;;;;5092543;28;20024;-60
2023/01/01 07:18:02;;;;;;;2.47;0.50;;;13.40;91.80;;;;;;5108738;28;20655;-60
2023/01/01 07:20:28;;;;;;;1.58;0.38;;;13.40;91.80;;;;;;5107377;28;20678;-59
2023/01/01 07:22:53;;;;;;;2.50;0.40;;;13.30;92.00;;;;;;5104367;28;20028;-60
2023/01/01 07:25:19;;;;;;;1.27;0.30;;;13.30;92.00;;;;;;5090387;28;20034;-60
2023/01/01 07:27:44;;;;;;;2.67;0.50;;;13.30;92.30;;;;;;5082395;28;20051;-59
2023/01/01 07:30:10;;;;;;;1.83;0.43;;;13.20;92.60;;;;;;5099189;28;20043;-59
2023/01/01 07:32:35;;;;;;;2.20;0.40;;;13.20;92.90;;;;;;5096210;28;20484;-60
2023/01/01 07:35:01;;;;;;;2.30;0.40;;;13.10;93.20;;;;;;5091618;28;20028;-60
2023/01/01 07:37:26;;;;;;;3.53;0.60;;;13.00;93.70;;;;;;5073246;28;20035;-60
2023/01/01 07:39:52;;;;;;;3.47;0.65;;;12.90;94.20;;;;;;5091603;28;20074;-59
2023/01/01 07:42:17;;;;;;;4.88;0.50;;;12.90;94.50;;;;;;5093303;28;20533;-60
2023/01/01 07:44:43;;;;;;;3.83;0.70;;;12.90;94.90;;;;;;5084566;28;20024;-59
2023/01/01 07:47:20;;;;;;;6.90;0.70;;;12.80;95.10;;;;;;5091459;28;20028;-59
2023/01/01 07:49:46;;;;;;;4.82;0.60;;;12.80;95.20;;;;;;5091242;28;20096;-60
2023/01/01 07:52:11;;;;;;;2.05;0.55;;;12.70;95.50;;;;;;5091956;28;20524;-60
2023/01/01 07:54:37;;;;;;;4.20;0.65;;;12.60;95.70;;;;;;5091197;28;20028;-60
2023/01/01 07:57:02;;;;;;;3.08;0.60;;;12.60;95.90;;;;;;5091089;28;20149;-59
2023/01/01 07:59:28;;;;;;;3.22;0.80;;;12.60;96.00;;;;;;5093001;28;20027;-59
2023/01/01 08:01:53;;;;;;;5.30;1.02;;;12.60;96.30;;;;;;5097614;28;20133;-60
2023/01/01 08:04:19;;;;;;;1.45;0.30;;;12.50;96.30;;;;;;5113792;28;20211;-60
2023/01/01 08:06:44;;;;;;;4.25;0.57;;;12.50;96.50;;;;;;5096970;28;20028;-60
2023/01/01 08:09:10;;;;;;;4.10;0.60;;;12.50;96.80;;;;;;5100947;28;20224;-60
2023/01/01 08:11:35;;;;;;;6.18;0.75;;;12.50;97.10;;;;;;5094369;28;20027;-60
2023/01/01 08:14:01;;;;;;;3.70;0.88;;;12.50;96.60;;;;;;5094229;28;20032;-60
2023/01/01 08:16:26;;;;;;;3.55;0.50;;;12.50;96.70;;;;;;5107995;28;20036;-60
2023/01/01 08:18:52;;;;;;;3.35;0.50;;;12.50;96.70;;;;;;5091465;28;20016;-60
2023/01/01 08:21:17;;;;;;;3.47;0.60;;;12.40;96.90;;;;;;5105997;28;20034;-60
2023/01/01 08:23:43;;;;;;;5.28;0.60;;;12.40;97.20;;;;;;5106787;28;20096;-60
2023/01/01 08:26:15;;;;;;;2.70;0.50;;;12.40;97.40;;;;;;5107617;28;20028;-60
2023/01/01 08:28:41;;;;;;;3.60;0.63;;;12.40;97.60;;;;;;5104476;28;20074;-60
2023/01/01 08:31:07;;;;;;;4.97;0.70;;;12.40;98.00;;;;;;5105198;27;20024;-59
2023/01/01 08:33:32;;;;;;;4.90;0.80;;;12.40;98.60;;;;;;5087642;28;20028;-60
2023/01/01 08:35:58;;;;;;;5.63;0.70;;;12.30;99.10;;;;;;5102488;28;20800;-60
2023/01/01 08:38:24;;;;;;;3.75;0.60;;;12.30;99.30;;;;;;5106315;28;20047;-60
2023/01/01 08:40:49;;;;;;;4.60;0.73;;;12.30;99.60;;;;;;5107950;28;20024;-60
2023/01/01 08:43:15;;;;;;;5.80;0.63;;;12.30;99.90;;;;;;5104272;28;20051;-59
2023/01/01 08:45:40;;;;;;;2.22;0.75;;;12.30;99.90;;;;;;5106137;28;20024;-60
2023/01/01 08:48:06;;;;;;;6.35;1.55;;;12.30;99.90;;;;;;5103264;28;20040;-60
2023/01/01 08:50:31;;;;;;;9.05;1.10;;;12.30;99.90;;;;;;5103405;28;20023;-60
2023/01/01 08:52:58;;;;;;;5.10;1.40;;;12.30;99.90;;;;;;5111803;28;20392;-60
2023/01/01 08:55:23;;;;;;;8.77;1.33;;;12.30;99.90;;;;;;5110931;28;20024;-59
2023/01/01 08:57:49;;;;;;;5.68;0.70;;;12.30;99.90;;;;;;5104253;28;20062;-60
2023/01/01 09:00:15;;;;;;;8.27;0.98;;;12.30;99.90;;;;;;5088667;28;20024;-59
2023/01/01 09:02:41;;;;;;;7.97;1.05;;;12.30;99.90;;;;;;5105181;28;20502;-60
2023/01/01 09:05:07;;;;;;;4.43;0.95;;;12.20;99.90;;;;;;5086460;28;20023;-60
2023/01/01 09:07:33;;;;;;;6.00;1.27;;;12.20;99.90;;;;;;5121110;27;20045;-59
2023/01/01 09:09:58;;;;;;;4.47;0.80;;;12.20;99.90;;;;;;5103909;28;20484;-59
2023/01/01 09:12:24;;;;;;;5.65;1.30;;;12.20;99.90;;;;;;5108287;28;20479;-60
2023/01/01 09:14:49;;;;;;;6.50;0.98;;;12.20;99.90;;;;;;5089882;28;20012;-60
2023/01/01 09:17:15;;;;;;;3.90;0.80;;;12.20;99.90;;;;;;5106719;28;20028;-60
2023/01/01 09:19:40;;;;;;;8.25;0.90;;;12.20;99.90;;;;;;5090144;28;20361;-59
2023/01/01 09:22:10;;;;;;;4.18;0.90;;;12.20;99.90;;;;;;5105675;28;20023;-60
2023/01/01 09:24:35;;;;;;;4.45;0.85;;;12.30;99.90;;;;;;5088358;28;20396;-60
2023/01/01 09:27:01;;;;;;;4.60;0.85;;;12.30;99.90;;;;;;5109287;28;20023;-60
2023/01/01 09:29:26;;;;;;;4.78;1.08;;;12.30;99.90;;;;;;5108183;28;20024;-60
2023/01/01 09:31:52;;;;;;;9.38;1.77;;;12.40;99.90;;;;;;5105527;28;20500;-60
2023/01/01 09:34:17;;;;;;;8.55;3.05;;;12.40;99.90;;;;;;5105945;27;20027;-60
2023/01/01 09:36:43;;;;;;;9.75;2.50;;;12.40;99.90;;;;;;5073924;28;20035;-60
2023/01/01 09:39:14;;;;;;;8.38;1.20;;;12.50;99.90;;;;;;5094976;28;20024;-60
2023/01/01 09:42:05;;;;;;;4.78;1.35;;;12.50;99.90;;;;;;5103067;28;20508;-60
2023/01/01 09:45:00;;;;;;;5.97;0.80;;;12.50;99.90;;;;;;5099693;27;20049;-60
2023/01/01 09:47:31;;;;;;;5.40;0.90;;;12.40;99.90;;;;;;5104768;28;20038;-60
2023/01/01 09:50:04;;;;;;;6.70;0.90;;;12.40;99.90;;;;;;5111062;28;20027;-60
2023/01/01 09:52:39;;;;;;;7.22;1.58;;;12.30;99.90;;;;;;5108526;28;20055;-60
2023/01/01 09:55:24;;;;;;;5.28;0.80;;;12.30;99.90;;;;;;5104674;28;20027;-60
2023/01/01 09:57:50;;;;;;;10.73;1.23;;;12.30;99.90;;;;;;5073817;28;20489;-60
2023/01/01 10:00:17;;;;;;;2.70;0.90;;;12.20;99.90;;;;;;5117809;27;20019;-60
2023/01/01 10:03:07;;;;;;;6.75;0.90;;;12.20;99.90;;;;;;5100861;28;20131;-60
2023/01/01 10:06:00;;;;;;;4.00;0.88;;;12.20;99.90;;;;;;5098779;28;20056;-60
2023/01/01 10:08:30;;;;;;;5.68;1.55;;;12.20;99.90;;;;;;5091875;28;20105;-60
2023/01/01 10:11:06;;;;;;;6.18;1.73;;;12.10;99.90;;;;;;5091681;28;20078;-59
2023/01/01 10:13:53;;;;;;;6.10;1.45;;;12.10;99.90;;;;;;5092892;28;20481;-60
2023/01/01 10:16:38;;;;;;;7.07;1.48;;;12.10;99.90;;;;;;5112402;28;20039;-60
2023/01/01 10:19:39;;;;;;;3.80;0.77;;;12.00;99.90;;;;;;5092071;28;20028;-60
2023/01/01 10:22:17;;;;;;;5.57;1.20;;;12.00;99.90;;;;;;5098884;28;20016;-60
2023/01/01 10:24:53;;;;;;;6.63;1.30;;;11.90;99.90;;;;;;5108813;28;20019;-60
2023/01/01 10:27:42;;;;;;;4.78;1.42;;;11.90;99.90;;;;;;5105351;28;20027;-60
2023/01/01 10:30:17;;;;;;;6.50;1.33;;;11.90;99.90;;;;;;5109041;28;20020;-60
2023/01/01 10:32:47;;;;;;;7.65;1.33;;;11.90;99.90;;;;;;5103887;28;20273;-60
2023/01/01 10:35:15;;;;;;;4.65;0.85;;;11.90;99.90;;;;;;5108614;28;20451;-60
2023/01/01 10:37:42;;;;;;;8.05;1.10;;;11.80;99.90;;;;;;5108984;27;20436;-60
2023/01/01 10:40:22;;;;;;;6.88;1.20;;;11.80;99.90;;;;;;5116162;27;20011;-60
2023/01/01 10:43:14;;;;;;;4.43;1.10;;;11.90;99.90;;;;;;5107167;28;20099;-60
2023/01/01 10:45:50;;;;;;;3.65;0.90;;;12.00;99.90;;;;;;5083835;28;20118;-60
2023/01/01 10:48:16;;;;;;;2.70;0.70;;;11.90;99.90;;;;;;5107520;28;20031;-60
2023/01/01 10:50:49;;;;;;;3.38;0.93;;;12.00;99.90;;;;;;5108248;28;20027;-60
2023/01/01 10:53:23;;;;;;;5.70;1.10;;;12.00;99.90;;;;;;5108273;28;20393;-60
2023/01/01 10:55:56;;;;;;;6.53;1.17;;;12.00;99.90;;;;;;5106251;28;20164;-60
2023/01/01 10:58:31;;;;;;;6.35;1.00;;;12.00;99.90;;;;;;5108973;28;20015;-60
2023/01/01 11:00:58;;;;;;;3.83;1.05;;;12.00;99.90;;;;;;5108980;28;20019;-60
2023/01/01 11:03:24;;;;;;;4.30;1.00;;;11.90;99.90;;;;;;5106610;28;20039;-60
2023/01/01 11:06:18;;;;;;;7.28;1.52;;;12.10;99.90;;;;;;5107406;28;20023;-60
2023/01/01 11:08:52;;;;;;;6.85;1.50;;;12.30;99.90;;;;;;5107187;28;20048;-60
2023/01/01 11:11:40;;;;;;;6.57;1.48;;;12.50;99.90;;;;;;5108198;28;20027;-60
2023/01/01 11:14:25;;;;;;;7.90;1.60;;;12.60;99.90;;;;;;5107282;28;20043;-60
2023/01/01 11:16:51;;;;;;;8.27;1.67;;;12.70;99.90;;;;;;5104619;28;20016;-60
2023/01/01 11:19:32;;;;;;;9.68;2.03;;;12.60;99.90;;;;;;5109604;28;20102;-60
2023/01/01 11:21:58;;;;;;;7.60;1.73;;;12.60;99.90;;;;;;5107747;28;20011;-61
2023/01/01 11:24:27;;;;;;;8.80;2.30;;;12.60;99.90;;;;;;5116759;28;20033;-60
2023/01/01 11:27:20;;;;;;;7.50;2.38;;;12.60;99.90;;;;;;5102252;28;20013;-60
2023/01/01 11:29:46;;;;;;;8.13;2.22;;;12.70;99.90;;;;;;5093313;28;20032;-60
2023/01/01 11:32:33;;;;;;;12.02;3.03;;;12.60;99.90;;;;;;5100229;28;20028;-60
2023/01/01 11:35:05;;;;;;;7.22;2.28;;;12.70;99.90;;;;;;5102854;28;20031;-60
2023/01/01 11:37:36;;;;;;;11.13;2.58;;;12.70;99.90;;;;;;5109442;28;20028;-60
2023/01/01 11:40:05;;;;;;;5.75;2.10;;;12.70;99.90;;;;;;5108703;28;20472;-60
2023/01/01 11:42:35;;;;;;;8.55;2.35;;;12.70;99.90;;;;;;5107998;28;20149;-60
2023/01/01 11:45:15;;;;;;;7.90;2.50;;;12.70;99.90;;;;;;5109793;28;20036;-60
2023/01/01 11:47:43;;;;;;;8.85;2.08;;;12.80;99.90;;;;;;5088619;28;20020;-61
2023/01/01 11:50:27;;;;;;;10.32;2.60;;;12.80;99.90;;;;;;5106836;28;20024;-60
2023/01/01 11:52:57;;;;;;;8.75;3.20;;;12.70;99.90;;;;;;5094989;28;20020;-60
2023/01/01 11:55:38;;;;;;;;;;;12.70;99.90;;;;;;5097530;28;20027;-61
2023/01/01 11:58:13;;;;;;;12.98;3.70;;;12.70;99.90;;;;;;5108291;28;19904;-60
2023/01/01 12:00:39;;;;;;;8.32;2.53;;;12.70;99.90;;;;;;5104700;28;20032;-60
2023/01/01 12:03:25;;;;;;;9.60;2.53;;;12.70;99.90;;;;;;5101813;28;20024;-60
2023/01/01 12:06:04;;;;;;;11.45;2.80;;;12.80;99.90;;;;;;5106051;28;20019;-60
2023/01/01 12:08:43;;;;;;;;;;;12.90;99.90;;;;;;5112021;28;20118;-60
2023/01/01 12:11:24;;;;;;;6.30;1.80;;;13.10;99.90;;;;;;5110426;28;19916;-60
2023/01/01 12:13:59;;;;;;;6.43;2.03;;;13.20;99.90;;;;;;5107129;28;20039;-60
2023/01/01 12:16:38;;;;;;;10.38;2.42;;;13.40;99.90;;;;;;5094273;28;20043;-60
2023/01/01 12:19:21;;;;;;;7.00;2.60;;;13.50;99.90;;;;;;5108592;28;20043;-60
2023/01/01 12:21:50;;;;;;;9.70;1.85;;;13.50;99.90;;;;;;5109498;28;20379;-60
2023/01/01 12:24:17;;;;;;;6.18;1.60;;;13.50;99.90;;;;;;5111679;28;20020;-60
2023/01/01 12:27:08;;;;;;;7.45;1.98;;;13.60;99.90;;;;;;5105518;28;20145;-60
2023/01/01 12:29:53;;;;;;;9.77;2.55;;;13.80;99.90;;;;;;5111818;28;20032;-60
2023/01/01 12:32:48;;;;;;;8.63;2.13;;;14.10;99.90;;;;;;5111734;28;20028;-60
2023/01/01 12:35:54;;;;;;;9.38;2.33;;;15.50;99.90;;;;;;5100341;28;20065;-61
2023/01/01 12:38:50;;;;;;;7.68;1.80;;;17.00;99.90;;;;;;5107646;28;20023;-61
2023/01/01 12:41:34;;;;;;;5.72;1.70;;;18.70;99.80;;;;;;5110505;28;20106;-61
2023/01/01 12:44:05;;;;;;;8.73;2.25;;;20.00;96.60;;;;;;5109902;28;20414;-61
2023/01/01 12:46:57;;;;;;;7.57;1.80;;;20.50;91.80;;;;;;5110140;28;20047;-61
2023/01/01 12:49:39;;;;;;;3.85;1.48;;;21.20;89.80;;;;;;5055293;28;20039;-60
2023/01/01 12:52:32;;;;;;;9.30;1.45;;;21.30;83.10;;;;;;5098329;28;20408;-61
2023/01/01 12:55:13;;;;;;;4.28;1.40;;;21.00;80.30;;;;;;5080258;28;20391;-61
2023/01/01 12:57:49;;;;;;;6.50;1.80;;;20.10;80.50;;;;;;5079990;28;20028;-61
2023/01/01 13:00:19;;;;;;;10.90;2.50;;;19.40;82.60;;;;;;5093538;28;20486;-61
2023/01/01 13:02:55;;;;;;;9.68;2.63;;;18.60;84.40;;;;;;5098677;28;20020;-60
2023/01/01 13:05:25;;;;;;;5.55;1.40;;;17.80;85.40;;;;;;5093308;28;20070;-61
2023/01/01 13:07:59;;;;;;;5.70;1.60;;;17.20;88.70;;;;;;5060704;28;20053;-60
2023/01/01 13:10:30;;;;;;;7.10;1.83;;;16.80;90.10;;;;;;5063741;28;20524;-61